sensor_id;sensor_type;location;lat;lon;timestamp;P1;durP1;ratioP1;P2;durP2;ratioP2
60314;SDS011;46159;42.550;21.904;2024-01-16T00:01:07;69.97;;;37.88;;
60314;SDS011;46159;42.550;21.904;2024-01-16T00:03:33;58.13;;;33.92;;
60314;SDS011;46159;42.550;21.904;2024-01-16T00:06:04;62.25;;;40.10;;
60314;SDS011;46159;42.550;21.904;2024-01-16T00:08:31;63.58;;;41.22;;
60314;SDS011;46159;42.550;21.904;2024-01-16T00:10:57;51.67;;;34.13;;
60314;SDS011;46159;42.550;21.904;2024-01-16T00:13:23;59.83;;;36.85;;
60314;SDS011;46159;42.550;21.904;2024-01-16T00:15:50;59.55;;;37.75;;
60314;SDS011;46159;42.550;21.904;2024-01-16T00:18:17;68.95;;;41.30;;
60314;SDS011;46159;42.550;21.904;2024-01-16T00:20:43;54.42;;;33.58;;
60314;SDS011;46159;42.550;21.904;2024-01-16T00:23:10;45.53;;;29.48;;
60314;SDS011;46159;42.550;21.904;2024-01-16T00:25:36;51.08;;;33.40;;
60314;SDS011;46159;42.550;21.904;2024-01-16T00:28:02;55.97;;;36.55;;
60314;SDS011;46159;42.550;21.904;2024-01-16T00:30:29;60.10;;;35.30;;
60314;SDS011;46159;42.550;21.904;2024-01-16T00:32:57;54.55;;;34.22;;
60314;SDS011;46159;42.550;21.904;2024-01-16T00:35:23;45.78;;;28.13;;
60314;SDS011;46159;42.550;21.904;2024-01-16T00:37:49;54.28;;;34.08;;
60314;SDS011;46159;42.550;21.904;2024-01-16T00:40:15;56.28;;;31.90;;
60314;SDS011;46159;42.550;21.904;2024-01-16T00:42:41;48.55;;;30.20;;
60314;SDS011;46159;42.550;21.904;2024-01-16T00:45:07;49.90;;;30.50;;
60314;SDS011;46159;42.550;21.904;2024-01-16T00:47:34;43.30;;;26.60;;
60314;SDS011;46159;42.550;21.904;2024-01-16T00:50:00;42.42;;;26.42;;
60314;SDS011;46159;42.550;21.904;2024-01-16T00:52:27;40.00;;;25.17;;
60314;SDS011;46159;42.550;21.904;2024-01-16T00:54:53;43.95;;;27.08;;
60314;SDS011;46159;42.550;21.904;2024-01-16T00:57:19;57.25;;;33.42;;
60314;SDS011;46159;42.550;21.904;2024-01-16T00:59:46;47.17;;;30.08;;
60314;SDS011;46159;42.550;21.904;2024-01-16T01:02:12;52.22;;;30.90;;
60314;SDS011;46159;42.550;21.904;2024-01-16T01:04:38;50.13;;;30.48;;
60314;SDS011;46159;42.550;21.904;2024-01-16T01:07:06;42.88;;;28.83;;
60314;SDS011;46159;42.550;21.904;2024-01-16T01:09:33;40.70;;;27.10;;
60314;SDS011;46159;42.550;21.904;2024-01-16T01:12:02;44.97;;;30.00;;
60314;SDS011;46159;42.550;21.904;2024-01-16T01:14:31;44.63;;;27.88;;
60314;SDS011;46159;42.550;21.904;2024-01-16T01:16:57;45.03;;;30.25;;
60314;SDS011;46159;42.550;21.904;2024-01-16T01:19:25;48.58;;;32.58;;
60314;SDS011;46159;42.550;21.904;2024-01-16T01:21:51;47.75;;;33.75;;
60314;SDS011;46159;42.550;21.904;2024-01-16T01:24:17;45.33;;;31.85;;
60314;SDS011;46159;42.550;21.904;2024-01-16T01:26:44;49.55;;;32.90;;
60314;SDS011;46159;42.550;21.904;2024-01-16T01:29:10;54.45;;;38.50;;
60314;SDS011;46159;42.550;21.904;2024-01-16T01:31:36;53.65;;;35.92;;
60314;SDS011;46159;42.550;21.904;2024-01-16T01:34:02;52.75;;;35.30;;
60314;SDS011;46159;42.550;21.904;2024-01-16T01:36:29;47.83;;;34.20;;
60314;SDS011;46159;42.550;21.904;2024-01-16T01:38:55;63.17;;;41.83;;
60314;SDS011;46159;42.550;21.904;2024-01-16T01:41:21;58.08;;;41.45;;
60314;SDS011;46159;42.550;21.904;2024-01-16T01:43:47;56.53;;;40.75;;
60314;SDS011;46159;42.550;21.904;2024-01-16T01:46:17;57.42;;;40.03;;
60314;SDS011;46159;42.550;21.904;2024-01-16T01:48:48;60.40;;;38.60;;
60314;SDS011;46159;42.550;21.904;2024-01-16T01:51:17;57.60;;;37.20;;
60314;SDS011;46159;42.550;21.904;2024-01-16T01:53:44;50.80;;;31.98;;
60314;SDS011;46159;42.550;21.904;2024-01-16T01:56:11;44.60;;;29.45;;
60314;SDS011;46159;42.550;21.904;2024-01-16T01:58:37;58.53;;;35.75;;
60314;SDS011;46159;42.550;21.904;2024-01-16T02:01:04;94.13;;;53.60;;
60314;SDS011;46159;42.550;21.904;2024-01-16T02:03:32;83.70;;;47.92;;
60314;SDS011;46159;42.550;21.904;2024-01-16T02:06:00;47.80;;;33.17;;
60314;SDS011;46159;42.550;21.904;2024-01-16T02:08:27;47.88;;;31.65;;
60314;SDS011;46159;42.550;21.904;2024-01-16T02:10:53;44.15;;;28.15;;
60314;SDS011;46159;42.550;21.904;2024-01-16T02:13:19;44.17;;;28.60;;
60314;SDS011;46159;42.550;21.904;2024-01-16T02:15:48;48.67;;;31.77;;
60314;SDS011;46159;42.550;21.904;2024-01-16T02:18:15;55.13;;;35.92;;
60314;SDS011;46159;42.550;21.904;2024-01-16T02:20:41;10.40;;;4.53;;
60314;SDS011;46159;42.550;21.904;2024-01-16T02:23:07;6.38;;;3.20;;
60314;SDS011;46159;42.550;21.904;2024-01-16T02:25:40;9.38;;;4.53;;
60314;SDS011;46159;42.550;21.904;2024-01-16T02:28:06;6.63;;;3.17;;
60314;SDS011;46159;42.550;21.904;2024-01-16T02:30:32;8.23;;;3.35;;
60314;SDS011;46159;42.550;21.904;2024-01-16T02:32:58;6.05;;;2.45;;
60314;SDS011;46159;42.550;21.904;2024-01-16T02:35:24;6.97;;;3.28;;
60314;SDS011;46159;42.550;21.904;2024-01-16T02:37:50;7.85;;;3.50;;
60314;SDS011;46159;42.550;21.904;2024-01-16T02:40:16;8.60;;;3.50;;
60314;SDS011;46159;42.550;21.904;2024-01-16T02:42:42;6.80;;;2.75;;
60314;SDS011;46159;42.550;21.904;2024-01-16T02:45:09;6.93;;;3.40;;
60314;SDS011;46159;42.550;21.904;2024-01-16T02:47:35;8.57;;;2.75;;
60314;SDS011;46159;42.550;21.904;2024-01-16T02:50:01;4.88;;;2.05;;
60314;SDS011;46159;42.550;21.904;2024-01-16T02:52:28;4.50;;;1.75;;
60314;SDS011;46159;42.550;21.904;2024-01-16T02:54:54;5.88;;;2.40;;
60314;SDS011;46159;42.550;21.904;2024-01-16T02:57:20;6.05;;;2.28;;
60314;SDS011;46159;42.550;21.904;2024-01-16T02:59:47;6.55;;;1.98;;
60314;SDS011;46159;42.550;21.904;2024-01-16T03:02:13;8.18;;;4.10;;
60314;SDS011;46159;42.550;21.904;2024-01-16T03:04:39;12.23;;;6.65;;
60314;SDS011;46159;42.550;21.904;2024-01-16T03:07:05;9.27;;;5.82;;
60314;SDS011;46159;42.550;21.904;2024-01-16T03:09:31;10.85;;;7.30;;
60314;SDS011;46159;42.550;21.904;2024-01-16T03:11:59;11.70;;;7.82;;
60314;SDS011;46159;42.550;21.904;2024-01-16T03:14:25;8.07;;;5.10;;
60314;SDS011;46159;42.550;21.904;2024-01-16T03:16:51;12.45;;;6.90;;
60314;SDS011;46159;42.550;21.904;2024-01-16T03:19:17;9.05;;;4.65;;
60314;SDS011;46159;42.550;21.904;2024-01-16T03:21:45;8.93;;;4.05;;
60314;SDS011;46159;42.550;21.904;2024-01-16T03:24:11;10.35;;;6.20;;
60314;SDS011;46159;42.550;21.904;2024-01-16T03:26:37;7.53;;;3.65;;
60314;SDS011;46159;42.550;21.904;2024-01-16T03:29:03;9.43;;;4.05;;
60314;SDS011;46159;42.550;21.904;2024-01-16T03:31:29;71.78;;;28.85;;
60314;SDS011;46159;42.550;21.904;2024-01-16T03:33:56;20.00;;;9.32;;
60314;SDS011;46159;42.550;21.904;2024-01-16T03:36:22;21.45;;;9.32;;
60314;SDS011;46159;42.550;21.904;2024-01-16T03:38:48;23.63;;;10.18;;
60314;SDS011;46159;42.550;21.904;2024-01-16T03:41:14;9.70;;;5.05;;
60314;SDS011;46159;42.550;21.904;2024-01-16T03:43:41;9.43;;;3.83;;
60314;SDS011;46159;42.550;21.904;2024-01-16T03:46:07;20.88;;;9.50;;
60314;SDS011;46159;42.550;21.904;2024-01-16T03:48:33;14.88;;;7.28;;
60314;SDS011;46159;42.550;21.904;2024-01-16T03:50:59;12.32;;;6.07;;
60314;SDS011;46159;42.550;21.904;2024-01-16T03:53:25;9.32;;;5.97;;
60314;SDS011;46159;42.550;21.904;2024-01-16T03:55:51;7.43;;;4.90;;
60314;SDS011;46159;42.550;21.904;2024-01-16T03:58:17;8.90;;;6.43;;
60314;SDS011;46159;42.550;21.904;2024-01-16T04:00:43;9.75;;;4.93;;
60314;SDS011;46159;42.550;21.904;2024-01-16T04:03:10;6.40;;;2.85;;
60314;SDS011;46159;42.550;21.904;2024-01-16T04:05:36;5.55;;;2.78;;
60314;SDS011;46159;42.550;21.904;2024-01-16T04:08:03;6.90;;;5.22;;
60314;SDS011;46159;42.550;21.904;2024-01-16T04:10:29;6.53;;;3.38;;
60314;SDS011;46159;42.550;21.904;2024-01-16T04:12:55;5.80;;;3.28;;
60314;SDS011;46159;42.550;21.904;2024-01-16T04:15:21;4.18;;;1.52;;
60314;SDS011;46159;42.550;21.904;2024-01-16T04:17:47;4.90;;;1.85;;
60314;SDS011;46159;42.550;21.904;2024-01-16T04:20:15;6.13;;;2.60;;
60314;SDS011;46159;42.550;21.904;2024-01-16T04:22:41;4.57;;;1.80;;
60314;SDS011;46159;42.550;21.904;2024-01-16T04:25:07;3.55;;;1.55;;
60314;SDS011;46159;42.550;21.904;2024-01-16T04:27:35;4.75;;;2.00;;
60314;SDS011;46159;42.550;21.904;2024-01-16T04:30:01;8.55;;;4.63;;
60314;SDS011;46159;42.550;21.904;2024-01-16T04:32:28;7.45;;;4.43;;
60314;SDS011;46159;42.550;21.904;2024-01-16T04:34:54;8.60;;;4.32;;
60314;SDS011;46159;42.550;21.904;2024-01-16T04:37:20;4.93;;;2.22;;
60314;SDS011;46159;42.550;21.904;2024-01-16T04:39:46;6.93;;;2.85;;
60314;SDS011;46159;42.550;21.904;2024-01-16T04:42:13;6.30;;;2.53;;
60314;SDS011;46159;42.550;21.904;2024-01-16T04:44:39;5.25;;;2.10;;
60314;SDS011;46159;42.550;21.904;2024-01-16T04:47:05;5.72;;;2.72;;
60314;SDS011;46159;42.550;21.904;2024-01-16T04:49:31;4.95;;;1.92;;
60314;SDS011;46159;42.550;21.904;2024-01-16T04:51:57;5.45;;;2.15;;
60314;SDS011;46159;42.550;21.904;2024-01-16T04:54:23;6.50;;;2.10;;
60314;SDS011;46159;42.550;21.904;2024-01-16T04:56:49;6.32;;;2.30;;
60314;SDS011;46159;42.550;21.904;2024-01-16T04:59:16;5.32;;;1.85;;
60314;SDS011;46159;42.550;21.904;2024-01-16T05:01:42;5.40;;;2.50;;
60314;SDS011;46159;42.550;21.904;2024-01-16T05:04:08;6.75;;;2.53;;
60314;SDS011;46159;42.550;21.904;2024-01-16T05:06:35;7.30;;;2.55;;
60314;SDS011;46159;42.550;21.904;2024-01-16T05:09:01;5.57;;;2.63;;
60314;SDS011;46159;42.550;21.904;2024-01-16T05:11:28;6.32;;;2.50;;
60314;SDS011;46159;42.550;21.904;2024-01-16T05:13:54;9.02;;;4.13;;
60314;SDS011;46159;42.550;21.904;2024-01-16T05:16:26;9.02;;;5.63;;
60314;SDS011;46159;42.550;21.904;2024-01-16T05:18:53;7.75;;;4.03;;
60314;SDS011;46159;42.550;21.904;2024-01-16T05:21:19;8.18;;;5.38;;
60314;SDS011;46159;42.550;21.904;2024-01-16T05:23:45;8.80;;;3.45;;
60314;SDS011;46159;42.550;21.904;2024-01-16T05:26:12;6.85;;;3.10;;
60314;SDS011;46159;42.550;21.904;2024-01-16T05:28:38;5.30;;;2.17;;
60314;SDS011;46159;42.550;21.904;2024-01-16T05:31:05;5.30;;;2.35;;
60314;SDS011;46159;42.550;21.904;2024-01-16T05:33:32;4.82;;;2.20;;
60314;SDS011;46159;42.550;21.904;2024-01-16T05:35:58;27.65;;;12.88;;
60314;SDS011;46159;42.550;21.904;2024-01-16T05:38:24;5.88;;;2.45;;
60314;SDS011;46159;42.550;21.904;2024-01-16T05:40:50;13.98;;;5.60;;
60314;SDS011;46159;42.550;21.904;2024-01-16T05:43:17;8.30;;;3.70;;
60314;SDS011;46159;42.550;21.904;2024-01-16T05:45:43;7.55;;;3.72;;
60314;SDS011;46159;42.550;21.904;2024-01-16T05:48:09;8.90;;;4.10;;
60314;SDS011;46159;42.550;21.904;2024-01-16T05:50:36;23.33;;;11.40;;
60314;SDS011;46159;42.550;21.904;2024-01-16T05:53:02;27.73;;;13.13;;
60314;SDS011;46159;42.550;21.904;2024-01-16T05:55:28;8.57;;;3.97;;
60314;SDS011;46159;42.550;21.904;2024-01-16T05:57:57;6.65;;;3.33;;
60314;SDS011;46159;42.550;21.904;2024-01-16T06:00:27;9.40;;;4.38;;
60314;SDS011;46159;42.550;21.904;2024-01-16T06:02:53;7.50;;;4.00;;
60314;SDS011;46159;42.550;21.904;2024-01-16T06:05:19;9.10;;;5.20;;
60314;SDS011;46159;42.550;21.904;2024-01-16T06:07:46;8.13;;;4.50;;
60314;SDS011;46159;42.550;21.904;2024-01-16T06:10:13;6.93;;;3.35;;
60314;SDS011;46159;42.550;21.904;2024-01-16T06:12:39;9.70;;;4.57;;
60314;SDS011;46159;42.550;21.904;2024-01-16T06:15:05;8.40;;;3.67;;
60314;SDS011;46159;42.550;21.904;2024-01-16T06:17:31;7.95;;;3.88;;
60314;SDS011;46159;42.550;21.904;2024-01-16T06:19:57;8.15;;;4.57;;
60314;SDS011;46159;42.550;21.904;2024-01-16T06:22:23;7.43;;;3.47;;
60314;SDS011;46159;42.550;21.904;2024-01-16T06:24:49;8.18;;;3.85;;
60314;SDS011;46159;42.550;21.904;2024-01-16T06:27:16;7.78;;;3.92;;
60314;SDS011;46159;42.550;21.904;2024-01-16T06:29:50;7.65;;;3.85;;
60314;SDS011;46159;42.550;21.904;2024-01-16T06:32:16;7.07;;;3.42;;
60314;SDS011;46159;42.550;21.904;2024-01-16T06:34:42;7.28;;;3.45;;
60314;SDS011;46159;42.550;21.904;2024-01-16T06:37:08;8.00;;;3.83;;
60314;SDS011;46159;42.550;21.904;2024-01-16T06:39:35;10.27;;;5.50;;
60314;SDS011;46159;42.550;21.904;2024-01-16T06:42:01;8.82;;;4.95;;
60314;SDS011;46159;42.550;21.904;2024-01-16T06:44:29;10.48;;;5.20;;
60314;SDS011;46159;42.550;21.904;2024-01-16T06:46:56;10.93;;;5.45;;
60314;SDS011;46159;42.550;21.904;2024-01-16T06:49:22;13.63;;;7.65;;
60314;SDS011;46159;42.550;21.904;2024-01-16T06:51:48;22.88;;;11.50;;
60314;SDS011;46159;42.550;21.904;2024-01-16T06:54:14;28.42;;;12.90;;
60314;SDS011;46159;42.550;21.904;2024-01-16T06:56:40;11.60;;;6.65;;
60314;SDS011;46159;42.550;21.904;2024-01-16T06:59:06;11.93;;;6.97;;
60314;SDS011;46159;42.550;21.904;2024-01-16T07:01:32;22.77;;;14.05;;
60314;SDS011;46159;42.550;21.904;2024-01-16T07:03:58;21.15;;;12.57;;
60314;SDS011;46159;42.550;21.904;2024-01-16T07:06:24;15.48;;;8.98;;
60314;SDS011;46159;42.550;21.904;2024-01-16T07:08:50;12.23;;;7.55;;
60314;SDS011;46159;42.550;21.904;2024-01-16T07:11:16;10.63;;;6.35;;
60314;SDS011;46159;42.550;21.904;2024-01-16T07:13:43;8.55;;;4.38;;
60314;SDS011;46159;42.550;21.904;2024-01-16T07:16:09;8.07;;;4.32;;
60314;SDS011;46159;42.550;21.904;2024-01-16T07:18:37;8.82;;;5.55;;
60314;SDS011;46159;42.550;21.904;2024-01-16T07:21:03;13.52;;;7.78;;
60314;SDS011;46159;42.550;21.904;2024-01-16T07:23:29;12.95;;;8.57;;
60314;SDS011;46159;42.550;21.904;2024-01-16T07:25:55;19.55;;;11.82;;
60314;SDS011;46159;42.550;21.904;2024-01-16T07:28:22;37.38;;;12.45;;
60314;SDS011;46159;42.550;21.904;2024-01-16T07:30:48;191.32;;;42.60;;
60314;SDS011;46159;42.550;21.904;2024-01-16T07:33:14;34.38;;;10.68;;
60314;SDS011;46159;42.550;21.904;2024-01-16T07:35:40;17.45;;;9.52;;
60314;SDS011;46159;42.550;21.904;2024-01-16T07:38:08;9.25;;;5.43;;
60314;SDS011;46159;42.550;21.904;2024-01-16T07:40:35;11.27;;;6.63;;
60314;SDS011;46159;42.550;21.904;2024-01-16T07:43:01;14.93;;;8.75;;
60314;SDS011;46159;42.550;21.904;2024-01-16T07:45:27;16.30;;;9.48;;
60314;SDS011;46159;42.550;21.904;2024-01-16T07:47:53;10.98;;;6.72;;
60314;SDS011;46159;42.550;21.904;2024-01-16T07:50:19;10.13;;;5.70;;
60314;SDS011;46159;42.550;21.904;2024-01-16T07:52:45;9.07;;;4.80;;
60314;SDS011;46159;42.550;21.904;2024-01-16T07:55:11;12.43;;;6.80;;
60314;SDS011;46159;42.550;21.904;2024-01-16T07:57:37;12.50;;;6.63;;
60314;SDS011;46159;42.550;21.904;2024-01-16T08:00:03;13.70;;;6.97;;
60314;SDS011;46159;42.550;21.904;2024-01-16T08:02:34;15.68;;;7.78;;
60314;SDS011;46159;42.550;21.904;2024-01-16T08:05:01;14.07;;;7.85;;
60314;SDS011;46159;42.550;21.904;2024-01-16T08:07:27;13.48;;;6.85;;
60314;SDS011;46159;42.550;21.904;2024-01-16T08:09:53;8.98;;;5.25;;
60314;SDS011;46159;42.550;21.904;2024-01-16T08:12:19;38.20;;;19.75;;
60314;SDS011;46159;42.550;21.904;2024-01-16T08:14:45;10.48;;;5.10;;
60314;SDS011;46159;42.550;21.904;2024-01-16T08:17:11;85.65;;;36.55;;
60314;SDS011;46159;42.550;21.904;2024-01-16T08:19:37;12.02;;;5.32;;
60314;SDS011;46159;42.550;21.904;2024-01-16T08:22:03;12.45;;;6.43;;
60314;SDS011;46159;42.550;21.904;2024-01-16T08:24:31;44.47;;;19.67;;
60314;SDS011;46159;42.550;21.904;2024-01-16T08:26:57;166.20;;;62.85;;
60314;SDS011;46159;42.550;21.904;2024-01-16T08:29:23;15.38;;;8.05;;
60314;SDS011;46159;42.550;21.904;2024-01-16T08:31:50;39.53;;;17.73;;
60314;SDS011;46159;42.550;21.904;2024-01-16T08:34:19;12.35;;;6.82;;
60314;SDS011;46159;42.550;21.904;2024-01-16T08:36:45;46.25;;;19.35;;
60314;SDS011;46159;42.550;21.904;2024-01-16T08:39:11;239.40;;;89.20;;
60314;SDS011;46159;42.550;21.904;2024-01-16T08:41:38;12.18;;;7.43;;
60314;SDS011;46159;42.550;21.904;2024-01-16T08:44:04;10.20;;;6.55;;
60314;SDS011;46159;42.550;21.904;2024-01-16T08:46:30;12.15;;;7.55;;
60314;SDS011;46159;42.550;21.904;2024-01-16T08:48:56;10.43;;;5.65;;
60314;SDS011;46159;42.550;21.904;2024-01-16T08:51:23;8.68;;;4.90;;
60314;SDS011;46159;42.550;21.904;2024-01-16T08:53:49;9.02;;;4.63;;
60314;SDS011;46159;42.550;21.904;2024-01-16T08:56:15;11.50;;;6.55;;
60314;SDS011;46159;42.550;21.904;2024-01-16T08:58:42;11.82;;;7.10;;
60314;SDS011;46159;42.550;21.904;2024-01-16T09:01:08;13.80;;;7.50;;
60314;SDS011;46159;42.550;21.904;2024-01-16T09:03:35;12.73;;;7.63;;
60314;SDS011;46159;42.550;21.904;2024-01-16T09:06:01;11.73;;;7.38;;
60314;SDS011;46159;42.550;21.904;2024-01-16T09:08:28;12.80;;;7.82;;
60314;SDS011;46159;42.550;21.904;2024-01-16T09:10:54;10.93;;;6.35;;
60314;SDS011;46159;42.550;21.904;2024-01-16T09:13:20;11.90;;;6.25;;
60314;SDS011;46159;42.550;21.904;2024-01-16T09:15:48;9.02;;;5.13;;
60314;SDS011;46159;42.550;21.904;2024-01-16T09:18:14;9.68;;;5.68;;
60314;SDS011;46159;42.550;21.904;2024-01-16T09:20:41;11.05;;;5.93;;
60314;SDS011;46159;42.550;21.904;2024-01-16T09:23:07;8.45;;;4.20;;
60314;SDS011;46159;42.550;21.904;2024-01-16T09:25:34;9.15;;;4.93;;
60314;SDS011;46159;42.550;21.904;2024-01-16T09:28:00;9.93;;;5.32;;
60314;SDS011;46159;42.550;21.904;2024-01-16T09:30:26;10.82;;;5.38;;
60314;SDS011;46159;42.550;21.904;2024-01-16T09:32:52;9.38;;;5.55;;
60314;SDS011;46159;42.550;21.904;2024-01-16T09:35:18;10.18;;;5.50;;
60314;SDS011;46159;42.550;21.904;2024-01-16T09:37:45;12.13;;;5.90;;
60314;SDS011;46159;42.550;21.904;2024-01-16T09:40:11;9.63;;;5.65;;
60314;SDS011;46159;42.550;21.904;2024-01-16T09:42:38;10.27;;;4.68;;
60314;SDS011;46159;42.550;21.904;2024-01-16T09:45:06;9.15;;;5.32;;
60314;SDS011;46159;42.550;21.904;2024-01-16T09:47:33;9.85;;;5.28;;
60314;SDS011;46159;42.550;21.904;2024-01-16T09:50:00;8.05;;;4.03;;
60314;SDS011;46159;42.550;21.904;2024-01-16T09:52:29;24.02;;;6.47;;
60314;SDS011;46159;42.550;21.904;2024-01-16T09:54:55;14.88;;;7.38;;
60314;SDS011;46159;42.550;21.904;2024-01-16T09:57:25;9.82;;;5.60;;
60314;SDS011;46159;42.550;21.904;2024-01-16T09:59:52;14.07;;;7.68;;
60314;SDS011;46159;42.550;21.904;2024-01-16T10:02:18;7.60;;;3.45;;
60314;SDS011;46159;42.550;21.904;2024-01-16T10:04:46;11.55;;;5.85;;
60314;SDS011;46159;42.550;21.904;2024-01-16T10:07:12;9.68;;;4.90;;
60314;SDS011;46159;42.550;21.904;2024-01-16T10:09:39;10.82;;;5.18;;
60314;SDS011;46159;42.550;21.904;2024-01-16T10:12:06;15.93;;;8.20;;
60314;SDS011;46159;42.550;21.904;2024-01-16T10:14:33;10.93;;;5.45;;
60314;SDS011;46159;42.550;21.904;2024-01-16T10:17:00;9.43;;;4.32;;
60314;SDS011;46159;42.550;21.904;2024-01-16T10:19:47;16.67;;;5.45;;
60314;SDS011;46159;42.550;21.904;2024-01-16T10:22:20;11.77;;;5.75;;
60314;SDS011;46159;42.550;21.904;2024-01-16T10:24:47;11.85;;;6.03;;
60314;SDS011;46159;42.550;21.904;2024-01-16T10:27:15;11.95;;;4.50;;
60314;SDS011;46159;42.550;21.904;2024-01-16T10:29:55;13.38;;;4.97;;
60314;SDS011;46159;42.550;21.904;2024-01-16T10:32:27;8.48;;;3.55;;
60314;SDS011;46159;42.550;21.904;2024-01-16T10:35:06;12.70;;;6.40;;
60314;SDS011;46159;42.550;21.904;2024-01-16T10:37:49;14.73;;;6.68;;
60314;SDS011;46159;42.550;21.904;2024-01-16T10:40:19;42.38;;;22.33;;
60314;SDS011;46159;42.550;21.904;2024-01-16T10:42:45;10.45;;;5.85;;
60314;SDS011;46159;42.550;21.904;2024-01-16T10:45:16;14.90;;;7.88;;
60314;SDS011;46159;42.550;21.904;2024-01-16T10:47:44;26.52;;;15.48;;
60314;SDS011;46159;42.550;21.904;2024-01-16T10:50:11;8.95;;;5.05;;
60314;SDS011;46159;42.550;21.904;2024-01-16T10:52:40;7.88;;;3.97;;
60314;SDS011;46159;42.550;21.904;2024-01-16T10:55:10;15.55;;;10.07;;
60314;SDS011;46159;42.550;21.904;2024-01-16T10:57:38;14.30;;;7.40;;
60314;SDS011;46159;42.550;21.904;2024-01-16T11:00:06;8.20;;;4.15;;
60314;SDS011;46159;42.550;21.904;2024-01-16T11:02:38;12.75;;;5.97;;
60314;SDS011;46159;42.550;21.904;2024-01-16T11:05:06;13.73;;;5.53;;
60314;SDS011;46159;42.550;21.904;2024-01-16T11:07:34;14.70;;;5.78;;
60314;SDS011;46159;42.550;21.904;2024-01-16T11:10:01;15.02;;;7.13;;
60314;SDS011;46159;42.550;21.904;2024-01-16T11:12:28;19.25;;;11.38;;
60314;SDS011;46159;42.550;21.904;2024-01-16T11:14:55;9.95;;;5.75;;
60314;SDS011;46159;42.550;21.904;2024-01-16T11:17:22;19.80;;;11.60;;
60314;SDS011;46159;42.550;21.904;2024-01-16T11:19:49;17.10;;;8.77;;
60314;SDS011;46159;42.550;21.904;2024-01-16T11:22:15;12.75;;;7.82;;
60314;SDS011;46159;42.550;21.904;2024-01-16T11:24:41;12.07;;;7.05;;
60314;SDS011;46159;42.550;21.904;2024-01-16T11:27:08;13.20;;;6.55;;
60314;SDS011;46159;42.550;21.904;2024-01-16T11:29:35;15.15;;;7.47;;
60314;SDS011;46159;42.550;21.904;2024-01-16T11:32:01;8.63;;;4.45;;
60314;SDS011;46159;42.550;21.904;2024-01-16T11:37:07;24.27;;;7.53;;
60314;SDS011;46159;42.550;21.904;2024-01-16T11:39:34;22.00;;;8.93;;
60314;SDS011;46159;42.550;21.904;2024-01-16T11:42:01;13.35;;;5.47;;
60314;SDS011;46159;42.550;21.904;2024-01-16T11:44:41;19.38;;;5.60;;
60314;SDS011;46159;42.550;21.904;2024-01-16T11:47:07;19.38;;;12.45;;
60314;SDS011;46159;42.550;21.904;2024-01-16T11:49:34;10.63;;;5.32;;
60314;SDS011;46159;42.550;21.904;2024-01-16T11:52:01;8.70;;;4.65;;
60314;SDS011;46159;42.550;21.904;2024-01-16T11:54:27;6.97;;;3.03;;
60314;SDS011;46159;42.550;21.904;2024-01-16T12:02:10;14.18;;;5.88;;
60314;SDS011;46159;42.550;21.904;2024-01-16T12:04:38;8.48;;;4.68;;
60314;SDS011;46159;42.550;21.904;2024-01-16T12:07:04;9.65;;;4.43;;
60314;SDS011;46159;42.550;21.904;2024-01-16T12:09:30;9.90;;;4.75;;
60314;SDS011;46159;42.550;21.904;2024-01-16T12:12:00;11.25;;;4.90;;
60314;SDS011;46159;42.550;21.904;2024-01-16T12:14:27;10.57;;;5.07;;
60314;SDS011;46159;42.550;21.904;2024-01-16T12:17:00;10.82;;;4.28;;
60314;SDS011;46159;42.550;21.904;2024-01-16T12:19:34;12.35;;;4.85;;
60314;SDS011;46159;42.550;21.904;2024-01-16T12:22:00;11.77;;;5.78;;
60314;SDS011;46159;42.550;21.904;2024-01-16T12:24:26;11.70;;;4.45;;
60314;SDS011;46159;42.550;21.904;2024-01-16T12:26:52;10.02;;;5.50;;
60314;SDS011;46159;42.550;21.904;2024-01-16T12:29:23;12.15;;;5.95;;
60314;SDS011;46159;42.550;21.904;2024-01-16T12:31:49;10.23;;;4.97;;
60314;SDS011;46159;42.550;21.904;2024-01-16T12:34:15;11.75;;;6.38;;
60314;SDS011;46159;42.550;21.904;2024-01-16T12:36:41;9.13;;;4.82;;
60314;SDS011;46159;42.550;21.904;2024-01-16T12:39:10;10.27;;;5.22;;
60314;SDS011;46159;42.550;21.904;2024-01-16T12:41:40;14.00;;;5.88;;
60314;SDS011;46159;42.550;21.904;2024-01-16T12:44:07;7.50;;;3.90;;
60314;SDS011;46159;42.550;21.904;2024-01-16T12:46:34;10.52;;;5.32;;
60314;SDS011;46159;42.550;21.904;2024-01-16T12:49:04;10.25;;;4.60;;
60314;SDS011;46159;42.550;21.904;2024-01-16T12:51:32;10.13;;;4.70;;
60314;SDS011;46159;42.550;21.904;2024-01-16T12:54:12;11.23;;;5.40;;
60314;SDS011;46159;42.550;21.904;2024-01-16T12:56:39;24.65;;;8.43;;
60314;SDS011;46159;42.550;21.904;2024-01-16T12:59:11;14.63;;;7.57;;
60314;SDS011;46159;42.550;21.904;2024-01-16T13:01:41;15.80;;;7.47;;
60314;SDS011;46159;42.550;21.904;2024-01-16T13:04:16;13.18;;;7.40;;
60314;SDS011;46159;42.550;21.904;2024-01-16T13:06:42;11.85;;;5.93;;
60314;SDS011;46159;42.550;21.904;2024-01-16T13:09:09;17.42;;;7.85;;
60314;SDS011;46159;42.550;21.904;2024-01-16T13:11:49;15.50;;;7.68;;
60314;SDS011;46159;42.550;21.904;2024-01-16T13:14:16;12.68;;;5.70;;
60314;SDS011;46159;42.550;21.904;2024-01-16T13:16:42;12.80;;;7.63;;
60314;SDS011;46159;42.550;21.904;2024-01-16T13:19:08;14.93;;;7.55;;
60314;SDS011;46159;42.550;21.904;2024-01-16T13:21:36;11.43;;;5.55;;
60314;SDS011;46159;42.550;21.904;2024-01-16T13:24:02;11.63;;;5.68;;
60314;SDS011;46159;42.550;21.904;2024-01-16T13:26:29;9.55;;;4.82;;
60314;SDS011;46159;42.550;21.904;2024-01-16T13:28:55;11.73;;;5.40;;
60314;SDS011;46159;42.550;21.904;2024-01-16T13:31:21;12.75;;;5.95;;
60314;SDS011;46159;42.550;21.904;2024-01-16T13:33:47;14.88;;;7.05;;
60314;SDS011;46159;42.550;21.904;2024-01-16T13:36:13;12.68;;;6.55;;
60314;SDS011;46159;42.550;21.904;2024-01-16T13:38:39;16.38;;;8.35;;
60314;SDS011;46159;42.550;21.904;2024-01-16T13:41:06;17.75;;;10.02;;
60314;SDS011;46159;42.550;21.904;2024-01-16T13:43:32;16.83;;;9.82;;
60314;SDS011;46159;42.550;21.904;2024-01-16T13:45:58;16.13;;;7.90;;
60314;SDS011;46159;42.550;21.904;2024-01-16T13:48:24;11.85;;;6.32;;
60314;SDS011;46159;42.550;21.904;2024-01-16T13:50:51;11.00;;;5.95;;
60314;SDS011;46159;42.550;21.904;2024-01-16T13:53:17;16.88;;;7.80;;
60314;SDS011;46159;42.550;21.904;2024-01-16T13:55:46;17.10;;;6.95;;
60314;SDS011;46159;42.550;21.904;2024-01-16T13:58:15;12.25;;;6.30;;
60314;SDS011;46159;42.550;21.904;2024-01-16T14:00:41;15.30;;;6.90;;
60314;SDS011;46159;42.550;21.904;2024-01-16T14:03:07;16.73;;;8.55;;
60314;SDS011;46159;42.550;21.904;2024-01-16T14:05:33;17.50;;;9.02;;
60314;SDS011;46159;42.550;21.904;2024-01-16T14:08:01;21.40;;;6.93;;
60314;SDS011;46159;42.550;21.904;2024-01-16T14:10:27;20.55;;;8.30;;
60314;SDS011;46159;42.550;21.904;2024-01-16T14:12:53;14.90;;;8.15;;
60314;SDS011;46159;42.550;21.904;2024-01-16T14:15:19;22.90;;;8.35;;
60314;SDS011;46159;42.550;21.904;2024-01-16T14:17:53;12.23;;;6.30;;
60314;SDS011;46159;42.550;21.904;2024-01-16T14:20:20;15.68;;;7.55;;
60314;SDS011;46159;42.550;21.904;2024-01-16T14:22:49;14.18;;;7.40;;
60314;SDS011;46159;42.550;21.904;2024-01-16T14:25:15;21.05;;;8.35;;
60314;SDS011;46159;42.550;21.904;2024-01-16T14:28:05;12.68;;;7.65;;
60314;SDS011;46159;42.550;21.904;2024-01-16T14:30:31;12.20;;;6.45;;